createdAt,value
2022-11-18T00:01:44.283Z,9.40
2022-11-18T00:08:44.549Z,9.40
2022-11-18T00:15:44.994Z,9.40
2022-11-18T00:22:46.235Z,9.40
2022-11-18T00:29:46.243Z,9.40
2022-11-18T00:36:47.274Z,9.40
2022-11-18T00:43:47.386Z,9.40
2022-11-18T00:50:55.335Z,9.40
2022-11-18T00:57:55.391Z,9.40
2022-11-18T01:04:55.669Z,9.40
2022-11-18T01:12:14.388Z,9.40
2022-11-18T01:19:15.778Z,9.40
2022-11-18T01:26:17.168Z,9.40
2022-11-18T01:33:17.547Z,9.40
2022-11-18T01:40:18.313Z,9.40
2022-11-18T01:47:18.924Z,9.40
2022-11-18T01:54:25.516Z,9.40
2022-11-18T02:01:25.775Z,9.40
2022-11-18T02:08:27.141Z,9.40
2022-11-18T02:15:43.218Z,9.40
2022-11-18T02:23:04.758Z,9.40
2022-11-18T02:30:11.646Z,9.40
2022-11-18T02:37:59.802Z,9.40
2022-11-18T02:45:05.803Z,9.40
2022-11-18T02:52:08.407Z,9.40
2022-11-18T02:59:08.682Z,9.40
2022-11-18T03:06:14.931Z,9.40
2022-11-18T03:13:24.621Z,9.40
2022-11-18T03:20:29.556Z,9.30
2022-11-18T03:28:02.433Z,9.30
2022-11-18T03:35:07.640Z,9.30
2022-11-18T03:42:13.123Z,9.30
2022-11-18T03:49:28.204Z,9.30
2022-11-18T03:56:39.250Z,9.30
2022-11-18T04:03:39.363Z,9.30
2022-11-18T04:10:52.454Z,9.30
2022-11-18T04:18:17.707Z,9.30
2022-11-18T04:25:17.991Z,9.30
2022-11-18T04:32:18.519Z,9.30
2022-11-18T04:39:19.289Z,9.20
2022-11-18T04:46:20.000Z,9.20
2022-11-18T04:53:20.457Z,9.20
2022-11-18T05:00:22.361Z,9.20
2022-11-18T05:07:22.713Z,9.20
2022-11-18T05:14:25.841Z,9.20
2022-11-18T05:21:25.972Z,9.20
2022-11-18T05:28:26.893Z,9.20
2022-11-18T05:35:27.247Z,9.10
2022-11-18T05:42:46.231Z,9.10
2022-11-18T05:49:46.504Z,9.10
2022-11-18T05:56:46.952Z,9.10
2022-11-18T06:03:47.540Z,9.20
2022-11-18T06:10:49.152Z,9.20
2022-11-18T06:17:54.835Z,9.20
2022-11-18T06:24:55.108Z,9.20
2022-11-18T06:31:55.440Z,9.20
2022-11-18T06:38:55.901Z,9.20
2022-11-18T06:46:19.546Z,9.20
2022-11-18T06:53:19.864Z,9.30
2022-11-18T07:00:20.377Z,9.30
2022-11-18T07:07:20.716Z,9.30
2022-11-18T07:14:21.009Z,9.30
2022-11-18T07:21:24.190Z,9.30
2022-11-18T07:28:24.829Z,9.40
2022-11-18T07:35:25.299Z,9.50
2022-11-18T07:42:26.843Z,9.60
2022-11-18T07:49:27.338Z,9.60
2022-11-18T07:56:27.814Z,9.60
2022-11-18T08:03:28.863Z,9.70
2022-11-18T08:10:29.002Z,9.70
2022-11-18T08:17:29.457Z,9.80
2022-11-18T08:24:29.718Z,9.90
2022-11-18T08:31:30.861Z,10.10
2022-11-18T08:38:31.011Z,10.10
2022-11-18T08:45:31.248Z,10.20
2022-11-18T08:52:31.911Z,10.30
2022-11-18T08:59:32.389Z,10.40
2022-11-18T09:06:34.550Z,10.40
2022-11-18T09:20:56.464Z,10.60
2022-11-18T09:27:56.758Z,10.60
2022-11-18T09:34:57.174Z,10.70
2022-11-18T09:42:15.753Z,10.60
2022-11-18T09:49:37.545Z,10.50
2022-11-18T09:56:38.831Z,10.50
2022-11-18T10:03:39.804Z,10.60
2022-11-18T10:10:44.781Z,10.60
2022-11-18T10:18:10.940Z,10.70
2022-11-18T10:25:14.192Z,10.90
2022-11-18T10:32:17.006Z,11.10
2022-11-18T10:39:17.442Z,11.20
2022-11-18T10:46:39.004Z,11.40
2022-11-18T10:53:39.337Z,11.50
2022-11-18T11:00:46.251Z,11.50
2022-11-18T11:08:28.901Z,11.60
2022-11-18T11:15:45.899Z,11.80
2022-11-18T11:22:46.178Z,11.90
2022-11-18T11:30:02.366Z,12.00
2022-11-18T11:37:17.298Z,12.10
2022-11-18T11:44:17.473Z,12.10
2022-11-18T11:51:43.782Z,12.30
2022-11-18T11:59:06.979Z,12.40
2022-11-18T12:06:10.161Z,12.40
2022-11-18T12:13:19.837Z,12.30
2022-11-18T12:20:48.203Z,12.00
2022-11-18T12:27:48.833Z,11.80
2022-11-18T12:35:16.040Z,11.70
2022-11-18T12:42:55.184Z,11.60
2022-11-18T12:50:11.368Z,11.50
2022-11-18T12:57:24.043Z,11.40
2022-11-18T13:04:24.882Z,11.30
2022-11-18T13:11:45.227Z,11.20
2022-11-18T13:18:53.778Z,11.30
2022-11-18T13:25:56.527Z,11.20
2022-11-18T13:32:59.054Z,11.20
2022-11-18T13:39:59.610Z,11.20
2022-11-18T13:47:24.059Z,11.30
2022-11-18T13:54:26.918Z,11.50
2022-11-18T14:01:29.945Z,11.50
2022-11-18T14:08:36.038Z,11.50
2022-11-18T14:15:43.282Z,11.50
2022-11-18T14:22:44.719Z,11.60
2022-11-18T14:29:54.298Z,11.70
2022-11-18T14:36:59.346Z,11.70
2022-11-18T14:44:00.077Z,11.70
2022-11-18T14:51:00.771Z,11.60
2022-11-18T14:58:00.991Z,11.60
2022-11-18T15:05:01.456Z,11.60
2022-11-18T15:12:03.539Z,11.60
2022-11-18T15:19:05.489Z,11.50
2022-11-18T15:26:37.074Z,11.40
2022-11-18T15:33:37.275Z,11.30
2022-11-18T15:40:38.644Z,11.20
2022-11-18T15:47:38.949Z,11.10
2022-11-18T15:54:39.471Z,11.00
2022-11-18T16:01:41.994Z,10.80
2022-11-18T16:08:42.262Z,10.70
2022-11-18T16:15:48.021Z,10.60
2022-11-18T16:22:48.340Z,10.40
2022-11-18T16:29:48.760Z,10.30
2022-11-18T16:36:51.967Z,10.10
2022-11-18T16:43:52.056Z,9.90
2022-11-18T16:51:17.751Z,9.80
2022-11-18T16:58:17.868Z,9.80
2022-11-18T17:05:18.212Z,9.70
2022-11-18T17:12:18.587Z,9.60
2022-11-18T17:19:21.886Z,9.50
2022-11-18T17:26:25.886Z,9.50
2022-11-18T17:33:26.272Z,9.50
2022-11-18T17:40:26.551Z,9.50
2022-11-18T17:47:27.185Z,9.50
2022-11-18T17:54:27.513Z,9.50
2022-11-18T18:01:27.997Z,9.50
2022-11-18T18:08:28.391Z,9.50
2022-11-18T18:15:28.839Z,9.50
2022-11-18T18:22:29.210Z,9.50
2022-11-18T18:29:29.565Z,9.50
2022-11-18T18:36:30.311Z,9.40
2022-11-18T18:43:30.973Z,9.40
2022-11-18T18:50:32.281Z,9.40
2022-11-18T18:57:32.357Z,9.20
2022-11-18T19:04:32.790Z,9.10
2022-11-18T19:11:51.848Z,9.00
2022-11-18T19:18:52.170Z,8.90
2022-11-18T19:26:01.656Z,8.90
2022-11-18T19:33:03.129Z,8.90
2022-11-18T19:40:08.856Z,8.90
2022-11-18T19:47:10.806Z,8.90
2022-11-18T19:54:11.344Z,8.90
2022-11-18T20:01:25.206Z,8.90
2022-11-18T20:08:25.602Z,9.00
2022-11-18T20:15:26.241Z,9.00
2022-11-18T20:22:26.509Z,9.00
2022-11-18T20:29:27.623Z,9.00
2022-11-18T20:36:33.098Z,9.00
2022-11-18T20:43:34.104Z,8.90
2022-11-18T20:50:38.477Z,8.90
2022-11-18T20:57:38.913Z,8.90
2022-11-18T21:04:39.332Z,8.90
2022-11-18T21:11:39.630Z,8.90
2022-11-18T21:18:40.308Z,8.80
2022-11-18T21:25:40.729Z,8.80
2022-11-18T21:32:41.511Z,8.80
2022-11-18T21:39:41.828Z,8.80
2022-11-18T21:46:42.562Z,8.80
2022-11-18T21:53:46.010Z,8.80
2022-11-18T22:00:46.523Z,8.80
2022-11-18T22:07:46.992Z,8.80
2022-11-18T22:14:47.340Z,8.80
2022-11-18T22:21:47.916Z,8.80
2022-11-18T22:28:53.457Z,8.80
2022-11-18T22:35:53.802Z,8.80
2022-11-18T22:42:54.186Z,8.80
2022-11-18T22:49:56.521Z,8.80
2022-11-18T22:56:57.361Z,8.70
2022-11-18T23:03:57.554Z,8.70
2022-11-18T23:11:02.485Z,8.70
2022-11-18T23:18:05.223Z,8.70
2022-11-18T23:25:09.236Z,8.70
2022-11-18T23:32:09.616Z,8.70
2022-11-18T23:39:10.181Z,8.70
2022-11-18T23:46:10.795Z,8.70
2022-11-18T23:53:11.336Z,8.70
